createdAt,value
2022-10-10T00:01:10.848Z,7.10
2022-10-10T00:03:39.385Z,7.10
2022-10-10T00:06:08.133Z,7.10
2022-10-10T00:08:36.734Z,7.10
2022-10-10T00:11:05.177Z,6.90
2022-10-10T00:13:35.561Z,6.90
2022-10-10T00:16:04.657Z,6.90
2022-10-10T00:18:33.412Z,7.00
2022-10-10T00:21:01.509Z,6.90
2022-10-10T00:23:29.664Z,7.00
2022-10-10T00:25:57.822Z,7.00
2022-10-10T00:28:26.032Z,7.00
2022-10-10T00:30:55.602Z,6.90
2022-10-10T00:33:23.739Z,6.90
2022-10-10T00:35:51.922Z,6.90
2022-10-10T00:38:20.083Z,6.90
2022-10-10T00:40:49.717Z,6.90
2022-10-10T00:43:18.551Z,6.90
2022-10-10T00:45:48.362Z,6.80
2022-10-10T00:48:20.834Z,6.80
2022-10-10T00:50:54.098Z,6.70
2022-10-10T00:53:24.636Z,6.60
2022-10-10T00:55:53.291Z,6.50
2022-10-10T00:58:22.869Z,6.50
2022-10-10T01:00:51.541Z,6.50
2022-10-10T01:03:21.920Z,6.50
2022-10-10T01:05:51.787Z,6.50
2022-10-10T01:08:22.127Z,6.40
2022-10-10T01:11:04.281Z,6.40
2022-10-10T01:13:40.188Z,6.30
2022-10-10T01:16:14.865Z,6.20
2022-10-10T01:18:54.437Z,6.20
2022-10-10T01:21:31.286Z,6.20
2022-10-10T01:24:28.349Z,6.20
2022-10-10T01:27:19.430Z,6.20
2022-10-10T01:29:53.180Z,6.20
2022-10-10T01:32:27.809Z,6.10
2022-10-10T01:35:09.228Z,6.10
2022-10-10T01:37:44.503Z,6.10
2022-10-10T01:40:21.967Z,6.10
2022-10-10T01:42:54.351Z,6.10
2022-10-10T01:45:26.052Z,6.10
2022-10-10T01:47:56.416Z,6.20
2022-10-10T01:50:27.500Z,6.20
2022-10-10T01:53:08.573Z,6.10
2022-10-10T01:55:52.714Z,6.10
2022-10-10T01:58:38.116Z,6.10
2022-10-10T02:01:14.112Z,6.10
2022-10-10T02:03:46.861Z,6.10
2022-10-10T02:06:22.059Z,6.00
2022-10-10T02:08:55.640Z,6.10
2022-10-10T02:11:26.292Z,6.10
2022-10-10T02:13:58.780Z,6.10
2022-10-10T02:16:31.593Z,6.10
2022-10-10T02:19:00.904Z,6.10
2022-10-10T02:21:31.205Z,6.00
2022-10-10T02:24:04.801Z,6.00
2022-10-10T02:26:33.367Z,6.00
2022-10-10T02:29:05.784Z,6.10
2022-10-10T02:31:40.089Z,6.10
2022-10-10T02:34:12.772Z,6.00
2022-10-10T02:36:42.682Z,6.00
2022-10-10T02:39:13.550Z,6.00
2022-10-10T02:41:44.482Z,6.00
2022-10-10T02:44:14.378Z,6.10
2022-10-10T02:46:43.897Z,6.10
2022-10-10T02:49:13.062Z,6.00
2022-10-10T02:51:41.402Z,6.10
2022-10-10T02:54:09.714Z,6.00
2022-10-10T02:56:37.796Z,6.00
2022-10-10T02:59:05.915Z,5.90
2022-10-10T03:01:34.048Z,6.00
2022-10-10T03:04:03.695Z,6.00
2022-10-10T03:06:32.011Z,5.90
2022-10-10T03:09:00.112Z,5.90
2022-10-10T03:11:28.249Z,5.90
2022-10-10T03:13:56.354Z,5.90
2022-10-10T03:20:08.608Z,5.70
2022-10-10T03:22:36.686Z,5.70
2022-10-10T03:25:05.225Z,5.70
2022-10-10T03:27:33.512Z,5.70
2022-10-10T03:30:01.565Z,5.70
2022-10-10T03:32:29.725Z,5.70
2022-10-10T03:34:58.269Z,5.70
2022-10-10T03:37:27.827Z,5.70
2022-10-10T03:39:55.941Z,5.70
2022-10-10T03:42:24.021Z,5.70
2022-10-10T03:44:52.127Z,5.60
2022-10-10T03:47:20.206Z,5.60
2022-10-10T03:49:48.274Z,5.60
2022-10-10T03:52:16.628Z,5.70
2022-10-10T03:54:46.114Z,5.70
2022-10-10T03:57:14.267Z,5.70
2022-10-10T03:59:42.363Z,5.70
2022-10-10T04:02:10.500Z,5.70
2022-10-10T04:04:38.592Z,5.70
2022-10-10T04:07:06.748Z,5.70
2022-10-10T04:09:34.845Z,5.80
2022-10-10T04:12:04.565Z,5.90
2022-10-10T04:14:32.653Z,5.90
2022-10-10T04:17:03.080Z,5.80
2022-10-10T04:19:31.584Z,5.90
2022-10-10T04:21:59.757Z,5.90
2022-10-10T04:24:28.027Z,5.90
2022-10-10T04:26:56.301Z,5.80
2022-10-10T04:29:25.986Z,5.80
2022-10-10T04:31:54.069Z,5.80
2022-10-10T04:34:22.198Z,5.70
2022-10-10T04:36:50.293Z,5.70
2022-10-10T04:39:18.369Z,5.70
2022-10-10T04:41:49.894Z,5.70
2022-10-10T04:44:18.933Z,5.70
2022-10-10T04:46:48.500Z,5.70
2022-10-10T04:49:16.616Z,5.70
2022-10-10T04:51:44.739Z,5.70
2022-10-10T04:54:13.428Z,5.60
2022-10-10T04:56:42.510Z,5.70
2022-10-10T04:59:10.876Z,5.70
2022-10-10T05:01:39.038Z,5.70
2022-10-10T05:04:08.542Z,5.80
2022-10-10T05:06:36.659Z,5.70
2022-10-10T05:09:04.776Z,5.70
2022-10-10T05:11:33.000Z,5.70
2022-10-10T05:14:01.103Z,5.70
2022-10-10T05:16:30.004Z,5.80
2022-10-10T05:18:58.350Z,5.80
2022-10-10T05:21:27.921Z,5.90
2022-10-10T05:23:56.301Z,5.80
2022-10-10T05:26:24.390Z,5.80
2022-10-10T05:28:52.483Z,5.80
2022-10-10T05:31:20.741Z,5.80
2022-10-10T05:33:48.853Z,5.80
2022-10-10T05:36:16.914Z,5.90
2022-10-10T05:38:46.487Z,5.90
2022-10-10T05:41:14.588Z,5.90
2022-10-10T05:43:42.688Z,6.00
2022-10-10T05:46:10.801Z,6.00
2022-10-10T05:48:38.909Z,5.90
2022-10-10T05:51:08.439Z,5.90
2022-10-10T05:53:36.538Z,5.90
2022-10-10T05:56:06.441Z,5.80
2022-10-10T05:58:34.534Z,5.80
2022-10-10T06:01:06.989Z,5.80
2022-10-10T06:03:36.536Z,5.70
2022-10-10T06:06:04.846Z,5.80
2022-10-10T06:08:33.027Z,5.90
2022-10-10T06:11:09.060Z,5.90
2022-10-10T06:13:38.832Z,5.90
2022-10-10T06:16:07.252Z,5.90
2022-10-10T06:18:35.355Z,6.00
2022-10-10T06:21:04.400Z,6.10
2022-10-10T06:23:33.123Z,6.00
2022-10-10T06:26:01.368Z,6.00
2022-10-10T06:28:32.579Z,6.10
2022-10-10T06:31:01.889Z,6.10
2022-10-10T06:33:30.174Z,6.20
2022-10-10T06:35:58.505Z,6.30
2022-10-10T06:38:27.564Z,6.40
2022-10-10T06:40:59.746Z,6.40
2022-10-10T06:43:28.606Z,6.50
2022-10-10T06:45:58.113Z,6.50
2022-10-10T06:48:27.056Z,6.70
2022-10-10T06:51:03.296Z,6.70
2022-10-10T06:53:32.284Z,6.80
2022-10-10T06:56:00.540Z,6.90
2022-10-10T06:58:29.778Z,7.00
2022-10-10T07:01:00.959Z,7.10
2022-10-10T07:03:30.028Z,7.20
2022-10-10T07:06:00.402Z,7.30
2022-10-10T07:08:29.888Z,7.40
2022-10-10T07:10:58.419Z,7.50
2022-10-10T07:13:26.551Z,7.70
2022-10-10T07:15:54.744Z,7.80
2022-10-10T07:18:24.237Z,8.00
2022-10-10T07:20:52.345Z,8.10
2022-10-10T07:23:20.465Z,8.30
2022-10-10T07:25:48.562Z,8.40
2022-10-10T07:28:16.832Z,8.50
2022-10-10T07:30:47.103Z,8.70
2022-10-10T07:33:16.030Z,8.80
2022-10-10T07:35:54.380Z,9.00
2022-10-10T07:38:22.530Z,9.20
2022-10-10T07:40:50.637Z,9.30
2022-10-10T07:43:18.930Z,9.40
2022-10-10T07:45:49.144Z,9.70
2022-10-10T07:48:17.516Z,9.80
2022-10-10T07:50:47.613Z,10.00
2022-10-10T07:53:15.678Z,10.10
2022-10-10T07:55:45.009Z,10.30
2022-10-10T07:58:13.414Z,10.50
2022-10-10T08:00:42.092Z,10.60
2022-10-10T08:03:12.190Z,10.70
2022-10-10T08:05:42.758Z,10.90
2022-10-10T08:08:12.753Z,11.10
2022-10-10T08:10:44.920Z,11.20
2022-10-10T08:13:13.037Z,11.30
2022-10-10T08:15:41.309Z,11.50
2022-10-10T08:18:09.573Z,11.60
2022-10-10T08:20:37.663Z,11.80
2022-10-10T08:23:05.774Z,11.90
2022-10-10T08:25:35.317Z,12.00
2022-10-10T08:28:05.494Z,12.10
2022-10-10T08:30:33.691Z,12.20
2022-10-10T08:33:02.516Z,12.30
2022-10-10T08:35:30.674Z,12.50
2022-10-10T08:37:59.125Z,12.60
2022-10-10T08:40:28.751Z,12.60
2022-10-10T08:43:03.290Z,12.70
2022-10-10T08:45:34.190Z,12.80
2022-10-10T08:48:06.857Z,13.00
2022-10-10T08:50:39.481Z,13.00
2022-10-10T08:53:14.021Z,13.00
2022-10-10T08:55:44.813Z,13.10
2022-10-10T08:58:21.889Z,13.10
2022-10-10T09:00:55.806Z,13.20
2022-10-10T09:03:42.467Z,13.30
2022-10-10T09:06:39.878Z,13.30
2022-10-10T09:09:18.293Z,13.40
2022-10-10T09:12:00.854Z,13.50
2022-10-10T09:14:38.540Z,13.50
2022-10-10T09:17:19.497Z,13.50
2022-10-10T09:20:00.669Z,13.60
2022-10-10T09:22:32.910Z,13.50
2022-10-10T09:25:05.769Z,13.60
2022-10-10T09:27:39.820Z,13.70
2022-10-10T09:30:18.296Z,13.70
2022-10-10T09:32:51.866Z,13.80
2022-10-10T09:35:23.951Z,13.80
2022-10-10T09:37:56.126Z,13.80
2022-10-10T09:40:29.512Z,13.80
2022-10-10T09:42:58.222Z,13.90
2022-10-10T09:45:33.029Z,14.10
2022-10-10T09:48:01.245Z,14.10
2022-10-10T09:50:29.398Z,14.20
2022-10-10T09:52:58.442Z,14.10
2022-10-10T09:55:29.940Z,14.30
2022-10-10T09:58:06.123Z,14.40
2022-10-10T10:00:37.506Z,14.40
2022-10-10T10:03:12.813Z,14.50
2022-10-10T10:05:42.870Z,14.50
2022-10-10T10:08:23.009Z,14.60
2022-10-10T10:10:51.458Z,14.70
2022-10-10T10:13:26.337Z,14.80
2022-10-10T10:16:01.885Z,14.70
2022-10-10T10:18:30.272Z,14.80
2022-10-10T10:21:15.787Z,14.90
2022-10-10T10:23:50.282Z,15.10
2022-10-10T10:26:21.949Z,15.20
2022-10-10T10:28:52.299Z,15.40
2022-10-10T10:31:35.443Z,15.30
2022-10-10T10:34:22.377Z,15.30
2022-10-10T10:36:58.313Z,15.60
2022-10-10T10:39:42.570Z,15.60
2022-10-10T10:42:21.729Z,15.70
2022-10-10T10:44:58.225Z,15.60
2022-10-10T10:47:38.351Z,15.70
2022-10-10T10:50:30.295Z,15.80
2022-10-10T10:53:04.688Z,15.90
2022-10-10T10:55:43.027Z,16.00
2022-10-10T11:01:54.707Z,16.10
2022-10-10T11:05:17.387Z,16.10
2022-10-10T11:07:43.719Z,16.10
2022-10-10T11:10:21.545Z,16.00
2022-10-10T11:12:59.828Z,16.00
2022-10-10T11:15:47.956Z,16.00
2022-10-10T11:18:27.870Z,16.00
2022-10-10T11:21:03.531Z,16.00
2022-10-10T11:23:35.426Z,15.90
2022-10-10T11:26:08.277Z,16.10
2022-10-10T11:28:43.251Z,16.20
2022-10-10T11:31:18.653Z,16.30
2022-10-10T11:33:49.837Z,16.30
2022-10-10T11:36:20.953Z,16.50
2022-10-10T11:38:54.124Z,16.60
2022-10-10T11:41:26.884Z,16.60
2022-10-10T11:43:57.741Z,16.60
2022-10-10T11:46:31.248Z,16.70
2022-10-10T11:49:05.708Z,16.70
2022-10-10T11:51:46.185Z,16.80
2022-10-10T11:54:26.538Z,16.90
2022-10-10T11:56:59.581Z,16.90
2022-10-10T11:59:33.240Z,17.00
2022-10-10T12:02:03.645Z,17.00
2022-10-10T12:04:36.562Z,17.10
2022-10-10T12:07:12.853Z,17.10
2022-10-10T12:09:44.775Z,17.10
2022-10-10T12:12:17.521Z,17.20
2022-10-10T12:14:53.903Z,17.30
2022-10-10T12:17:25.752Z,17.20
2022-10-10T12:19:54.212Z,17.20
2022-10-10T12:22:29.011Z,17.30
2022-10-10T12:25:09.606Z,17.40
2022-10-10T12:27:46.011Z,17.40
2022-10-10T12:30:31.792Z,17.50
2022-10-10T12:33:00.130Z,17.50
2022-10-10T12:35:32.694Z,17.50
2022-10-10T12:38:12.291Z,17.40
2022-10-10T12:41:05.526Z,17.40
2022-10-10T12:43:59.909Z,17.50
2022-10-10T12:46:30.379Z,17.60
2022-10-10T12:49:05.367Z,17.60
2022-10-10T12:51:36.686Z,17.60
2022-10-10T12:54:08.542Z,17.60
2022-10-10T12:56:42.217Z,17.40
2022-10-10T12:59:23.248Z,17.40
2022-10-10T13:01:55.344Z,17.40
2022-10-10T13:04:25.798Z,17.30
2022-10-10T13:06:57.093Z,17.40
2022-10-10T13:09:33.923Z,17.40
2022-10-10T13:12:05.351Z,17.30
2022-10-10T13:14:40.380Z,17.30
2022-10-10T13:17:24.920Z,17.30
2022-10-10T13:19:54.116Z,17.30
2022-10-10T13:22:23.565Z,17.30
2022-10-10T13:24:53.782Z,17.20
2022-10-10T13:27:25.136Z,17.20
2022-10-10T13:29:54.423Z,17.20
2022-10-10T13:32:25.736Z,17.20
2022-10-10T13:34:58.159Z,17.20
2022-10-10T13:37:27.200Z,17.20
2022-10-10T13:39:56.990Z,17.20
2022-10-10T13:42:32.254Z,17.20
2022-10-10T13:45:03.076Z,17.20
2022-10-10T13:47:53.637Z,17.20
2022-10-10T13:50:25.796Z,17.30
2022-10-10T13:53:25.240Z,17.40
2022-10-10T13:56:01.813Z,17.50
2022-10-10T13:58:33.626Z,17.60
2022-10-10T14:01:04.570Z,17.70
2022-10-10T14:03:34.898Z,17.60
2022-10-10T14:06:05.633Z,17.60
2022-10-10T14:08:35.307Z,17.60
2022-10-10T14:11:08.028Z,17.70
2022-10-10T14:13:39.412Z,17.70
2022-10-10T14:16:12.564Z,17.70
2022-10-10T14:18:40.863Z,17.60
2022-10-10T14:21:09.498Z,17.50
2022-10-10T14:23:38.230Z,17.30
2022-10-10T14:26:12.780Z,17.20
2022-10-10T14:28:41.313Z,17.10
2022-10-10T14:31:09.508Z,17.10
2022-10-10T14:33:38.278Z,17.10
2022-10-10T14:36:07.126Z,17.10
2022-10-10T14:38:35.270Z,17.10
2022-10-10T14:41:03.842Z,17.20
2022-10-10T14:43:33.513Z,17.30
2022-10-10T14:46:02.954Z,17.30
2022-10-10T14:48:31.040Z,17.30
2022-10-10T14:50:59.336Z,17.30
2022-10-10T14:53:27.539Z,17.50
2022-10-10T14:55:56.496Z,17.50
2022-10-10T14:58:24.688Z,17.60
2022-10-10T15:00:54.372Z,17.70
2022-10-10T15:03:22.910Z,17.60
2022-10-10T15:05:51.648Z,17.50
2022-10-10T15:08:20.742Z,17.40
2022-10-10T15:10:49.484Z,17.30
2022-10-10T15:13:17.672Z,17.20
2022-10-10T15:15:47.370Z,17.30
2022-10-10T15:18:49.319Z,17.20
2022-10-10T15:21:10.079Z,17.20
2022-10-10T15:23:38.345Z,17.10
2022-10-10T15:26:07.027Z,17.10
2022-10-10T15:28:35.460Z,17.00
2022-10-10T15:31:04.496Z,17.00
2022-10-10T15:33:34.583Z,17.00
2022-10-10T15:36:09.595Z,16.90
2022-10-10T15:38:38.256Z,16.80
2022-10-10T15:41:08.967Z,16.70
2022-10-10T15:43:45.377Z,16.60
2022-10-10T15:46:13.696Z,16.60
2022-10-10T15:48:43.153Z,16.60
2022-10-10T15:51:11.635Z,16.50
2022-10-10T15:53:39.884Z,16.40
2022-10-10T15:56:10.321Z,16.40
2022-10-10T15:58:39.668Z,16.40
2022-10-10T16:01:12.710Z,16.20
2022-10-10T16:03:42.482Z,16.20
2022-10-10T16:06:11.414Z,16.10
2022-10-10T16:08:40.114Z,16.10
2022-10-10T16:11:10.505Z,16.00
2022-10-10T16:13:39.756Z,16.00
2022-10-10T16:16:11.433Z,15.90
2022-10-10T16:18:41.093Z,16.00
2022-10-10T16:21:13.435Z,15.90
2022-10-10T16:23:41.816Z,15.80
2022-10-10T16:26:13.385Z,15.70
2022-10-10T16:28:41.808Z,15.70
2022-10-10T16:31:13.125Z,15.70
2022-10-10T16:33:42.399Z,15.60
2022-10-10T16:36:13.609Z,15.60
2022-10-10T16:38:42.138Z,15.40
2022-10-10T16:41:28.850Z,15.20
2022-10-10T16:44:01.569Z,15.00
2022-10-10T16:46:29.855Z,14.90
2022-10-10T16:48:59.441Z,14.80
2022-10-10T16:51:30.516Z,14.80
2022-10-10T16:54:01.771Z,14.70
2022-10-10T16:56:30.693Z,14.70
2022-10-10T16:59:00.172Z,14.60
2022-10-10T17:01:29.164Z,14.60
2022-10-10T17:04:00.568Z,14.50
2022-10-10T17:06:35.327Z,14.50
2022-10-10T17:09:05.798Z,14.50
2022-10-10T17:11:34.824Z,14.40
2022-10-10T17:14:04.073Z,14.40
2022-10-10T17:19:20.352Z,14.40
2022-10-10T17:21:50.208Z,14.40
2022-10-10T17:24:18.431Z,14.40
2022-10-10T17:26:46.561Z,14.30
2022-10-10T17:29:15.018Z,14.40
2022-10-10T17:31:43.161Z,14.30
2022-10-10T17:34:11.368Z,14.30
2022-10-10T17:36:39.471Z,14.30
2022-10-10T17:39:09.307Z,14.30
2022-10-10T17:41:37.465Z,14.20
2022-10-10T17:44:10.254Z,13.90
2022-10-10T17:46:38.879Z,13.80
2022-10-10T17:49:09.815Z,13.70
2022-10-10T17:51:39.716Z,13.70
2022-10-10T17:54:10.032Z,13.60
2022-10-10T17:56:39.061Z,13.60
2022-10-10T17:59:07.813Z,13.50
2022-10-10T18:01:36.837Z,13.40
2022-10-10T18:04:05.531Z,13.30
2022-10-10T18:06:34.256Z,13.20
2022-10-10T18:09:02.611Z,13.30
2022-10-10T18:11:32.804Z,13.30
2022-10-10T18:14:01.316Z,13.20
2022-10-10T18:16:32.382Z,13.20
2022-10-10T18:19:01.042Z,13.10
2022-10-10T18:21:30.016Z,13.10
2022-10-10T18:23:58.151Z,13.10
2022-10-10T18:26:29.426Z,13.10
2022-10-10T18:28:59.533Z,13.10
2022-10-10T18:31:29.923Z,13.10
2022-10-10T18:33:58.352Z,13.00
2022-10-10T18:36:28.850Z,13.00
2022-10-10T18:38:59.987Z,12.90
2022-10-10T18:41:34.221Z,12.90
2022-10-10T18:44:05.586Z,12.90
2022-10-10T18:46:34.677Z,12.90
2022-10-10T18:49:02.913Z,12.80
2022-10-10T18:51:31.340Z,12.80
2022-10-10T18:54:03.300Z,12.70
2022-10-10T18:56:32.906Z,12.80
2022-10-10T18:59:04.582Z,12.70
2022-10-10T19:01:36.374Z,12.70
2022-10-10T19:04:05.433Z,12.70
2022-10-10T19:06:33.803Z,12.70
2022-10-10T19:09:02.983Z,12.60
2022-10-10T19:11:33.322Z,12.60
2022-10-10T19:14:05.016Z,12.50
2022-10-10T19:16:33.782Z,12.40
2022-10-10T19:19:02.862Z,12.30
2022-10-10T19:21:33.182Z,12.30
2022-10-10T19:24:04.593Z,12.20
2022-10-10T19:26:33.572Z,12.10
2022-10-10T19:29:06.635Z,12.00
2022-10-10T19:31:38.044Z,11.90
2022-10-10T19:34:06.412Z,11.80
2022-10-10T19:36:38.431Z,11.80
2022-10-10T19:39:08.733Z,11.70
2022-10-10T19:41:36.863Z,11.70
2022-10-10T19:44:05.714Z,11.60
2022-10-10T19:46:37.540Z,11.40
2022-10-10T19:49:06.372Z,11.50
2022-10-10T19:51:34.506Z,11.40
2022-10-10T19:54:02.994Z,11.30
2022-10-10T19:56:31.385Z,11.30
2022-10-10T19:59:04.205Z,11.20
2022-10-10T20:01:33.142Z,11.20
2022-10-10T20:04:02.704Z,11.20
2022-10-10T20:06:31.146Z,11.20
2022-10-10T20:08:59.199Z,11.10
2022-10-10T20:11:27.688Z,11.00
2022-10-10T20:13:56.187Z,11.00
2022-10-10T20:16:26.574Z,10.90
2022-10-10T20:18:56.253Z,10.80
2022-10-10T20:21:31.183Z,10.70
2022-10-10T20:23:59.719Z,10.60
2022-10-10T20:26:28.153Z,10.60
2022-10-10T20:28:57.760Z,10.40
2022-10-10T20:31:28.173Z,10.40
2022-10-10T20:33:58.282Z,10.30
2022-10-10T20:36:28.856Z,10.20
2022-10-10T20:38:58.866Z,10.20
2022-10-10T20:41:28.690Z,10.20
2022-10-10T20:43:58.179Z,10.20
2022-10-10T20:46:27.575Z,10.10
2022-10-10T20:48:56.231Z,10.10
2022-10-10T20:51:25.247Z,10.00
2022-10-10T20:53:57.395Z,9.90
2022-10-10T20:56:27.027Z,9.90
2022-10-10T20:58:55.462Z,9.80
2022-10-10T21:01:25.571Z,9.80
2022-10-10T21:03:54.336Z,9.80
2022-10-10T21:06:24.621Z,9.70
2022-10-10T21:08:54.851Z,9.70
2022-10-10T21:11:24.446Z,9.70
2022-10-10T21:13:56.335Z,9.60
2022-10-10T21:16:26.237Z,9.50
2022-10-10T21:18:57.782Z,9.50
2022-10-10T21:21:27.548Z,9.40
2022-10-10T21:23:57.177Z,9.40
2022-10-10T21:26:27.071Z,9.40
2022-10-10T21:28:55.688Z,9.50
2022-10-10T21:31:26.598Z,9.30
2022-10-10T21:33:55.166Z,9.30
2022-10-10T21:36:25.691Z,9.30
2022-10-10T21:38:54.109Z,9.20
2022-10-10T21:41:24.414Z,9.10
2022-10-10T21:43:54.702Z,9.10
2022-10-10T21:46:24.845Z,9.00
2022-10-10T21:48:53.559Z,9.00
2022-10-10T21:51:22.660Z,9.00
2022-10-10T21:53:50.996Z,8.90
2022-10-10T21:56:19.453Z,9.00
2022-10-10T21:58:48.905Z,8.90
2022-10-10T22:01:18.909Z,8.90
2022-10-10T22:03:48.917Z,8.80
2022-10-10T22:06:19.123Z,8.80
2022-10-10T22:08:48.133Z,8.80
2022-10-10T22:11:18.145Z,8.70
2022-10-10T22:13:46.363Z,8.70
2022-10-10T22:16:16.079Z,8.60
2022-10-10T22:18:44.249Z,8.60
2022-10-10T22:21:14.219Z,8.60
2022-10-10T22:23:42.449Z,8.60
2022-10-10T22:26:13.582Z,8.50
2022-10-10T22:28:41.781Z,8.50
2022-10-10T22:31:11.527Z,8.40
2022-10-10T22:33:41.503Z,8.40
2022-10-10T22:36:10.253Z,8.40
2022-10-10T22:38:40.457Z,8.40
2022-10-10T22:41:09.268Z,8.40
2022-10-10T22:43:38.004Z,8.30
2022-10-10T22:46:07.210Z,8.30
2022-10-10T22:48:36.055Z,8.30
2022-10-10T22:51:08.239Z,8.30
2022-10-10T22:53:37.255Z,8.20
2022-10-10T22:56:06.355Z,8.20
2022-10-10T22:58:34.812Z,8.20
2022-10-10T23:01:06.949Z,8.10
2022-10-10T23:03:35.171Z,8.10
2022-10-10T23:06:05.169Z,8.10
2022-10-10T23:08:34.368Z,8.10
2022-10-10T23:11:02.689Z,8.10
2022-10-10T23:13:31.196Z,8.00
2022-10-10T23:15:59.348Z,8.00
2022-10-10T23:18:29.463Z,8.00
2022-10-10T23:20:57.963Z,8.00
2022-10-10T23:23:27.658Z,8.00
2022-10-10T23:25:56.246Z,7.90
2022-10-10T23:28:24.447Z,7.80
2022-10-10T23:30:52.555Z,7.80
2022-10-10T23:33:20.649Z,7.80
2022-10-10T23:35:58.219Z,7.80
2022-10-10T23:38:27.816Z,7.80
2022-10-10T23:40:56.532Z,7.80
2022-10-10T23:43:24.954Z,7.80
2022-10-10T23:45:53.147Z,7.80
2022-10-10T23:48:21.821Z,7.80
2022-10-10T23:50:49.926Z,7.80
2022-10-10T23:53:18.642Z,7.70
2022-10-10T23:55:49.045Z,7.70
2022-10-10T23:58:17.223Z,7.60
